Time;durP1;ratioP1;P1;durP2;ratioP2;P2;SDS_P1;SDS_P2;PMS_P1;PMS_P2;Temp;Humidity;BMP_temperature;BMP_pressure;BME280_temperature;BME280_humidity;BME280_pressure;Samples;Min_cycle;Max_cycle;Signal;HPM_P1;HPM_P2
2022/12/12 00:00:41;;;;;;;19.03;5.57;;;;;;;-0.51;100.00;100382.19;5076021;28;20581;-68
2022/12/12 00:03:09;;;;;;;22.07;8.00;;;;;;;-0.44;100.00;100390.06;5076056;28;20475;-68
2022/12/12 00:05:36;;;;;;;16.27;8.40;;;;;;;-0.49;100.00;100384.59;5075361;28;20957;-68
2022/12/12 00:08:02;;;;;;;19.83;8.40;;;;;;;-0.48;100.00;100398.72;5074711;28;20485;-68
2022/12/12 00:10:30;;;;;;;16.43;6.33;;;;;;;-0.45;100.00;100388.41;5075985;28;20442;-68
2022/12/12 00:12:57;;;;;;;18.70;7.43;;;;;;;-0.52;100.00;100398.38;5074103;28;20904;-68
2022/12/12 00:15:23;;;;;;;21.40;6.83;;;;;;;-0.46;100.00;100396.63;5075549;28;20528;-68
2022/12/12 00:17:50;;;;;;;17.00;7.17;;;;;;;-0.46;100.00;100392.13;5074252;28;20544;-68
2022/12/12 00:20:18;;;;;;;19.20;7.87;;;;;;;-0.34;100.00;100390.25;5074786;28;20485;-67
2022/12/12 00:22:45;;;;;;;24.03;8.50;;;;;;;-0.28;100.00;100375.22;5075820;28;20550;-68
2022/12/12 00:25:12;;;;;;;22.43;8.00;;;;;;;-0.27;100.00;100376.81;5074116;28;20544;-68
2022/12/12 00:27:38;;;;;;;28.23;8.20;;;;;;;-0.31;100.00;100376.50;5075669;28;20444;-65
2022/12/12 00:30:06;;;;;;;36.40;9.90;;;;;;;-0.28;100.00;100376.00;5074581;28;20532;-66
2022/12/12 00:32:33;;;;;;;18.47;7.83;;;;;;;-0.37;100.00;100377.41;5075676;28;20445;-64
2022/12/12 00:35:00;;;;;;;21.40;7.43;;;;;;;-0.36;100.00;100373.72;5074082;28;20484;-64
2022/12/12 00:37:28;;;;;;;19.40;7.10;;;;;;;-0.33;100.00;100369.78;5074787;28;20603;-67
2022/12/12 00:39:54;;;;;;;27.07;9.10;;;;;;;-0.29;100.00;100373.59;5074123;28;20565;-65
2022/12/12 00:42:21;;;;;;;16.47;7.07;;;;;;;-0.28;100.00;100369.88;5075089;28;20445;-64
2022/12/12 00:44:47;;;;;;;15.90;7.63;;;;;;;-0.34;100.00;100374.31;5074249;28;20496;-65
2022/12/12 00:47:14;;;;;;;20.60;8.57;;;;;;;-0.31;100.00;100370.34;5075234;28;20828;-65
2022/12/12 00:49:41;;;;;;;15.90;5.70;;;;;;;-0.30;100.00;100366.66;5073910;28;20473;-65
2022/12/12 00:52:07;;;;;;;25.50;7.90;;;;;;;-0.31;100.00;100368.53;5075215;28;20443;-66
2022/12/12 00:54:35;;;;;;;21.27;8.70;;;;;;;-0.35;100.00;100370.03;5074420;28;20880;-67
2022/12/12 00:57:02;;;;;;;23.70;8.20;;;;;;;-0.33;100.00;100367.94;5075088;28;20441;-67
2022/12/12 00:59:28;;;;;;;18.63;8.27;;;;;;;-0.37;100.00;100363.31;5073691;28;20492;-68
2022/12/12 01:01:55;;;;;;;16.63;6.53;;;;;;;-0.41;100.00;100356.84;5054767;28;20454;-67
2022/12/12 01:04:21;;;;;;;19.20;8.27;;;;;;;-0.42;100.00;100358.69;5054726;28;20529;-67
2022/12/12 01:06:48;;;;;;;17.17;8.07;;;;;;;-0.41;100.00;100362.97;5054883;28;20442;-67
2022/12/12 01:09:14;;;;;;;19.77;7.33;;;;;;;-0.35;100.00;100369.22;5060858;28;20560;-68
2022/12/12 01:11:42;;;;;;;18.70;7.57;;;;;;;-0.31;100.00;100371.19;5074659;28;20508;-67
2022/12/12 01:14:09;;;;;;;23.60;8.73;;;;;;;-0.42;100.00;100374.66;5074044;28;20536;-67
2022/12/12 01:16:36;;;;;;;24.13;8.07;;;;;;;-0.44;100.00;100381.25;5074585;28;20920;-67
2022/12/12 01:19:03;;;;;;;23.00;8.30;;;;;;;-0.61;100.00;100374.00;5073728;28;20489;-67
2022/12/12 01:21:29;;;;;;;21.53;8.97;;;;;;;-0.58;100.00;100383.34;5067311;28;20543;-66
2022/12/12 01:23:56;;;;;;;18.87;7.47;;;;;;;-0.59;100.00;100395.03;5054558;28;20444;-66
2022/12/12 01:26:25;;;;;;;23.00;9.17;;;;;;;-0.52;100.00;100385.88;5058643;28;20493;-66
2022/12/12 01:28:53;;;;;;;16.77;6.73;;;;;;;-0.37;100.00;100393.38;5073793;28;20473;-66
2022/12/12 01:31:20;;;;;;;27.13;7.20;;;;;;;-0.33;100.00;100391.06;5072821;28;20842;-66
2022/12/12 01:33:47;;;;;;;19.27;6.33;;;;;;;-0.36;100.00;100389.66;5074004;28;20533;-66
2022/12/12 01:36:16;;;;;;;22.73;8.90;;;;;;;-0.35;100.00;100386.00;5072426;28;20510;-66
2022/12/12 01:38:44;;;;;;;25.03;8.77;;;;;;;-0.26;100.00;100384.59;5074066;28;20547;-66
2022/12/12 01:41:11;;;;;;;20.57;6.90;;;;;;;-0.19;100.00;100388.97;5073207;28;20864;-66
2022/12/12 01:43:38;;;;;;;22.50;8.97;;;;;;;-0.13;100.00;100388.84;5072020;28;20536;-67
2022/12/12 01:46:39;;;;;;;22.00;10.03;;;;;;;-0.12;100.00;100384.31;5073991;28;20525;-66
2022/12/12 01:49:14;;;;;;;18.30;7.80;;;;;;;-0.18;100.00;100395.91;5053813;28;20472;-67
2022/12/12 01:51:41;;;;;;;15.00;6.50;;;;;;;-0.19;100.00;100396.94;5054654;28;20766;-67
2022/12/12 01:54:11;;;;;;;16.10;6.50;;;;;;;-0.17;100.00;100402.84;5072179;28;20529;-66
2022/12/12 01:56:41;;;;;;;23.30;7.70;;;;;;;-0.27;100.00;100393.63;5073206;28;20541;-67
2022/12/12 01:59:10;;;;;;;21.40;8.30;;;;;;;-0.21;100.00;100393.72;5073508;28;20565;-66
2022/12/12 02:01:39;;;;;;;27.93;8.80;;;;;;;-0.13;100.00;100404.00;5072677;28;20453;-69
2022/12/12 02:04:07;;;;;;;27.57;8.90;;;;;;;-0.12;100.00;100389.66;5070117;28;20465;-68
2022/12/12 02:06:34;;;;;;;21.50;8.70;;;;;;;-0.12;100.00;100387.00;5074669;28;20457;-68
2022/12/12 02:09:04;;;;;;;20.73;8.10;;;;;;;-0.17;100.00;100386.88;5092712;28;20525;-68
2022/12/12 02:11:31;;;;;;;18.00;7.67;;;;;;;-0.19;100.00;100376.47;5053873;28;20541;-67
2022/12/12 02:13:59;;;;;;;29.67;8.97;;;;;;;-0.20;100.00;100377.50;5068182;28;20453;-67
2022/12/12 02:16:40;;;;;;;18.83;7.40;;;;;;;-0.22;100.00;100381.44;5073907;28;20451;-67
2022/12/12 02:19:33;;;;;;;24.43;7.40;;;;;;;-0.23;100.00;100366.53;5053854;28;20462;-67
2022/12/12 02:22:03;;;;;;;17.70;6.83;;;;;;;-0.22;100.00;100368.13;5058378;28;20537;-67
2022/12/12 02:24:57;;;;;;;22.53;8.37;;;;;;;-0.29;100.00;100368.28;5073662;28;20507;-67
2022/12/12 02:27:35;;;;;;;19.23;7.70;;;;;;;-0.34;100.00;100368.16;5065640;28;20895;-67
2022/12/12 02:30:19;;;;;;;25.03;8.57;;;;;;;-0.32;100.00;100372.19;5053594;28;20446;-67
2022/12/12 02:33:23;;;;;;;23.60;9.00;;;;;;;-0.27;100.00;100382.97;5062633;28;20481;-68
2022/12/12 02:36:00;;;;;;;19.30;7.90;;;;;;;-0.29;100.00;100374.41;5052824;28;20544;-67
2022/12/12 02:38:31;;;;;;;31.37;9.33;;;;;;;-0.29;100.00;100378.91;5073058;28;20493;-66
2022/12/12 02:41:09;;;;;;;19.83;6.77;;;;;;;-0.22;100.00;100382.28;5072165;28;20850;-66
2022/12/12 02:43:42;;;;;;;22.10;6.80;;;;;;;-0.15;100.00;100382.13;5073283;28;20425;-66
2022/12/12 02:46:15;;;;;;;24.80;8.93;;;;;;;-0.11;100.00;100385.94;5071818;28;21002;-67
2022/12/12 02:48:48;;;;;;;33.90;10.67;;;;;;;-0.14;100.00;100392.53;5072292;28;20516;-67
2022/12/12 02:51:16;;;;;;;23.30;8.50;;;;;;;-0.16;100.00;100393.81;5073211;28;20434;-66
2022/12/12 02:53:43;;;;;;;25.57;9.17;;;;;;;-0.15;100.00;100390.13;5071325;28;21005;-66
2022/12/12 02:56:54;;;;;;;25.07;7.90;;;;;;;-0.12;100.00;100394.97;5071996;28;20556;-67
2022/12/12 02:59:25;;;;;;;20.63;7.33;;;;;;;-0.10;100.00;100400.84;5066588;22;20591;-67
2022/12/12 03:02:07;;;;;;;16.97;8.20;;;;;;;-0.08;100.00;100396.13;5092173;28;20461;-67
2022/12/12 03:07:57;;;;;;;25.70;8.83;;;;;;;0.00;100.00;100395.75;5030610;28;20452;-67
2022/12/12 03:10:33;;;;;;;19.03;6.97;;;;;;;0.02;100.00;100392.84;5029131;28;20545;-67
2022/12/12 03:13:10;;;;;;;22.73;7.47;;;;;;;0.02;100.00;100396.31;5029244;28;20530;-68
2022/12/12 03:15:44;;;;;;;19.37;7.97;;;;;;;0.07;100.00;100391.09;5030692;28;20442;-66
2022/12/12 03:18:22;;;;;;;19.63;8.03;;;;;;;0.13;100.00;100395.47;5029279;28;20462;-67
2022/12/12 03:20:58;;;;;;;21.23;7.17;;;;;;;0.13;100.00;100390.13;5029412;28;20486;-68
2022/12/12 03:23:28;;;;;;;22.03;8.43;;;;;;;0.12;100.00;100383.19;5011323;28;20502;-67
2022/12/12 03:26:00;;;;;;;20.03;7.13;;;;;;;0.14;100.00;100386.44;5030960;28;20439;-67
2022/12/12 03:28:32;;;;;;;23.73;8.87;;;;;;;0.12;100.00;100391.19;5029374;28;20534;-67
2022/12/12 03:31:02;;;;;;;27.70;9.37;;;;;;;0.14;100.00;100391.78;5025887;28;20938;-68
2022/12/12 03:33:33;;;;;;;19.43;7.70;;;;;;;0.20;100.00;100387.34;5010705;28;20463;-67
2022/12/12 03:36:08;;;;;;;22.90;8.47;;;;;;;0.17;100.00;100383.28;5014878;28;20489;-67
2022/12/12 03:38:40;;;;;;;19.33;8.20;;;;;;;0.18;100.00;100387.59;5049336;28;20540;-67
2022/12/12 03:41:12;;;;;;;27.50;9.73;;;;;;;0.21;100.00;100386.28;5073943;28;20565;-68
2022/12/12 03:43:46;;;;;;;21.10;8.60;;;;;;;0.20;100.00;100392.69;5072319;28;20429;-67
2022/12/12 03:46:19;;;;;;;18.10;7.70;;;;;;;0.20;100.00;100387.34;5079525;28;20523;-67
2022/12/12 03:48:50;;;;;;;19.33;7.03;;;;;;;0.28;100.00;100394.97;5089240;28;20539;-67
2022/12/12 03:51:23;;;;;;;27.43;7.20;;;;;;;0.31;100.00;100399.00;5072536;28;20459;-66
2022/12/12 03:53:56;;;;;;;23.67;8.27;;;;;;;0.32;100.00;100398.78;5078135;28;20543;-67
2022/12/12 03:56:28;;;;;;;19.87;7.50;;;;;;;0.27;100.00;100398.69;5092215;28;20424;-69
2022/12/12 03:59:01;;;;;;;23.10;8.37;;;;;;;0.26;100.00;100397.03;5085546;28;20927;-68
2022/12/12 04:01:35;;;;;;;28.60;8.60;;;;;;;0.24;100.00;100402.63;5095165;28;20547;-67
2022/12/12 04:04:09;;;;;;;21.87;7.63;;;;;;;0.25;100.00;100390.91;5095570;28;20516;-67
2022/12/12 04:06:41;;;;;;;19.20;7.60;;;;;;;0.26;100.00;100394.38;5095928;28;20428;-67
2022/12/12 04:15:07;;;;;;;19.50;8.70;;;;;;;0.34;100.00;100394.00;5079946;28;20515;-67
2022/12/12 04:17:40;;;;;;;20.43;8.20;;;;;;;0.35;100.00;100394.81;5075483;28;20513;-66
2022/12/12 04:23:15;;;;;;;15.13;6.70;;;;;;;0.38;100.00;100397.81;5095116;28;20522;-67
2022/12/12 04:28:41;;;;;;;22.60;7.67;;;;;;;0.39;100.00;100401.28;5084065;28;20472;-69
2022/12/12 04:31:11;;;;;;;15.57;6.20;;;;;;;0.50;100.00;100397.78;5077638;28;20517;-69
2022/12/12 04:33:42;;;;;;;18.00;7.70;;;;;;;0.55;100.00;100397.06;5089844;28;20598;-67
2022/12/12 04:36:13;;;;;;;16.93;7.17;;;;;;;0.54;100.00;100404.25;5095632;28;20425;-68
2022/12/12 04:38:42;;;;;;;27.20;7.47;;;;;;;0.57;100.00;100398.41;5094640;28;21036;-68
2022/12/12 04:41:12;;;;;;;13.77;6.90;;;;;;;0.55;100.00;100405.84;5093780;28;20849;-68
2022/12/12 04:43:42;;;;;;;21.33;7.03;;;;;;;0.48;100.00;100394.53;5094559;28;21032;-67
2022/12/12 04:46:12;;;;;;;16.80;6.67;;;;;;;0.48;100.00;100397.19;5094875;28;20461;-67
2022/12/12 04:48:43;;;;;;;16.30;6.20;;;;;;;0.51;100.00;100394.06;5095410;28;20449;-68
2022/12/12 04:51:13;;;;;;;17.70;7.10;;;;;;;0.54;100.00;100393.59;5093627;28;20539;-68
2022/12/12 04:53:46;;;;;;;14.40;5.83;;;;;;;0.53;100.00;100401.78;5094645;28;20462;-66
2022/12/12 04:56:19;;;;;;;15.87;6.83;;;;;;;0.46;100.00;100399.28;5094605;28;21086;-68
2022/12/12 04:58:46;;;;;;;17.70;7.37;;;;;;;0.47;100.00;100408.91;5094262;28;20513;-67
2022/12/12 05:01:22;;;;;;;15.57;7.10;;;;;;;0.49;100.00;100402.28;5088448;28;20470;-68
2022/12/12 05:03:52;;;;;;;17.90;6.70;;;;;;;0.48;100.00;100405.19;5074793;28;20496;-67
2022/12/12 05:06:22;;;;;;;12.83;5.03;;;;;;;0.52;100.00;100406.31;5081900;28;20536;-67
2022/12/12 05:08:53;;;;;;;17.40;6.37;;;;;;;0.52;100.00;100408.97;5094918;28;20484;-67
2022/12/12 05:11:21;;;;;;;15.87;5.77;;;;;;;0.52;100.00;100406.31;5082609;28;20472;-67
2022/12/12 05:13:49;;;;;;;13.57;5.23;;;;;;;0.50;100.00;100405.75;5074724;28;20487;-67
2022/12/12 05:16:20;;;;;;;15.30;5.17;;;;;;;0.51;100.00;100407.38;5087630;28;20461;-68
2022/12/12 05:18:47;;;;;;;11.57;4.70;;;;;;;0.46;100.00;100412.63;5094863;28;20913;-67
2022/12/12 05:21:14;;;;;;;13.07;4.83;;;;;;;0.45;100.00;100411.00;5094196;28;20543;-68
2022/12/12 05:23:40;;;;;;;15.07;5.10;;;;;;;0.30;100.00;100408.84;5094722;28;20476;-67
2022/12/12 05:26:10;;;;;;;12.17;4.43;;;;;;;0.34;100.00;100411.84;5092545;28;20456;-68
2022/12/12 05:28:37;;;;;;;10.23;4.23;;;;;;;0.35;100.00;100406.28;5094197;28;20451;-67
2022/12/12 05:31:04;;;;;;;10.73;4.17;;;;;;;0.39;100.00;100411.94;5092890;28;20452;-67
2022/12/12 05:33:31;;;;;;;14.00;4.80;;;;;;;0.31;100.00;100409.66;5081469;28;20538;-68
2022/12/12 05:35:57;;;;;;;10.57;3.87;;;;;;;0.36;100.00;100407.09;5077085;28;20460;-68
2022/12/12 05:38:24;;;;;;;10.87;4.20;;;;;;;0.42;100.00;100414.13;5090843;28;20810;-66
2022/12/12 05:40:50;;;;;;;10.60;3.53;;;;;;;0.48;100.00;100418.50;5073646;28;20857;-66
2022/12/12 05:43:18;;;;;;;10.23;3.80;;;;;;;0.47;100.00;100415.03;5073620;28;20548;-66
2022/12/12 05:45:45;;;;;;;10.23;3.37;;;;;;;0.47;100.00;100422.22;5073730;28;20495;-67
2022/12/12 05:48:12;;;;;;;8.83;4.10;;;;;;;0.34;100.00;100425.16;5076126;28;20547;-66
2022/12/12 05:50:38;;;;;;;10.40;3.37;;;;;;;0.35;100.00;100410.78;5093902;28;20552;-69
2022/12/12 05:53:05;;;;;;;8.40;3.20;;;;;;;0.43;100.00;100415.75;5090569;28;20483;-67
2022/12/12 05:55:31;;;;;;;12.77;3.67;;;;;;;0.44;100.00;100420.03;5073551;28;20451;-71
2022/12/12 05:57:58;;;;;;;9.20;3.63;;;;;;;0.29;100.00;100427.72;5075522;28;20468;-69
2022/12/12 06:00:26;;;;;;;11.37;4.30;;;;;;;0.35;100.00;100432.09;5089759;28;20500;-68
2022/12/12 06:02:52;;;;;;;8.23;3.10;;;;;;;0.38;100.00;100426.31;5078349;28;20556;-67
2022/12/12 06:05:19;;;;;;;10.20;4.30;;;;;;;0.40;100.00;100425.03;5076447;28;20527;-67
2022/12/12 06:07:46;;;;;;;12.47;4.37;;;;;;;0.34;100.00;100428.63;5087777;28;20524;-67
2022/12/12 06:10:13;;;;;;;10.07;3.73;;;;;;;0.38;100.00;100429.78;5093956;28;20492;-67
2022/12/12 06:12:39;;;;;;;9.93;3.40;;;;;;;0.43;100.00;100429.06;5084036;28;20457;-69
2022/12/12 06:15:07;;;;;;;11.13;4.70;;;;;;;0.42;100.00;100428.25;5089692;28;20931;-67
2022/12/12 06:17:35;;;;;;;7.53;3.30;;;;;;;0.20;100.00;100435.28;5093451;28;21112;-68
2022/12/12 06:20:02;;;;;;;6.67;2.93;;;;;;;0.27;100.00;100433.31;5093480;28;20456;-67
2022/12/12 06:22:28;;;;;;;9.00;3.80;;;;;;;0.21;100.00;100436.91;5092923;28;20896;-67
2022/12/12 06:24:55;;;;;;;24.43;3.63;;;;;;;0.28;100.00;100434.13;5093630;28;20531;-67
2022/12/12 06:27:22;;;;;;;9.80;4.40;;;;;;;0.29;100.00;100444.53;5093579;28;20447;-67
2022/12/12 06:29:48;;;;;;;8.43;3.43;;;;;;;0.20;100.00;100438.75;5093485;28;20453;-67
2022/12/12 06:32:15;;;;;;;9.27;3.70;;;;;;;0.23;100.00;100440.16;5093532;28;20552;-68
2022/12/12 06:34:43;;;;;;;10.07;4.10;;;;;;;0.20;100.00;100445.94;5093540;28;20487;-67
2022/12/12 06:37:10;;;;;;;12.03;3.60;;;;;;;0.18;100.00;100443.53;5093466;28;20547;-67
2022/12/12 06:39:37;;;;;;;8.33;3.70;;;;;;;0.29;100.00;100449.03;5093262;28;20875;-67
2022/12/12 06:42:04;;;;;;;9.73;3.80;;;;;;;0.34;100.00;100447.28;5093328;28;20566;-68
2022/12/12 06:44:32;;;;;;;11.27;4.80;;;;;;;0.23;100.00;100446.28;5093346;28;20544;-67
2022/12/12 06:46:58;;;;;;;10.83;4.40;;;;;;;0.22;100.00;100459.81;5092999;28;20479;-68
2022/12/12 06:49:25;;;;;;;9.77;4.07;;;;;;;0.27;100.00;100459.09;5092914;28;20542;-68
2022/12/12 06:51:53;;;;;;;10.50;3.90;;;;;;;0.35;100.00;100462.22;5093319;28;20471;-68
2022/12/12 06:54:20;;;;;;;10.63;3.43;;;;;;;0.33;100.00;100461.66;5093270;28;20881;-67
2022/12/12 06:56:46;;;;;;;9.17;3.80;;;;;;;0.24;100.00;100463.88;5092987;28;20531;-67
2022/12/12 06:59:14;;;;;;;10.33;4.27;;;;;;;0.30;100.00;100456.78;5092954;28;20468;-66
2022/12/12 07:01:40;;;;;;;10.60;4.30;;;;;;;0.23;100.00;100456.13;5092862;28;20516;-67
2022/12/12 07:04:07;;;;;;;9.63;3.77;;;;;;;0.31;100.00;100457.59;5093182;28;20446;-68
2022/12/12 07:06:34;;;;;;;10.60;4.37;;;;;;;0.30;100.00;100461.31;5093103;28;20527;-67
2022/12/12 07:09:02;;;;;;;12.20;4.57;;;;;;;0.32;100.00;100462.69;5093015;28;20453;-67
2022/12/12 07:11:28;;;;;;;11.10;4.33;;;;;;;0.31;100.00;100466.41;5093096;28;20432;-67
2022/12/12 07:13:57;;;;;;;9.83;4.20;;;;;;;0.33;100.00;100472.31;5092797;28;21006;-67
2022/12/12 07:16:24;;;;;;;12.20;3.87;;;;;;;0.16;100.00;100466.91;5093085;28;20535;-68
2022/12/12 07:18:50;;;;;;;9.53;3.67;;;;;;;0.22;100.00;100468.63;5092962;28;20547;-69
2022/12/12 07:21:18;;;;;;;8.37;3.40;;;;;;;0.25;100.00;100478.81;5092901;28;20571;-67
2022/12/12 07:23:45;;;;;;;8.97;3.80;;;;;;;0.30;100.00;100483.41;5092665;28;21029;-68
2022/12/12 07:26:16;;;;;;;11.83;4.30;;;;;;;0.24;100.00;100479.84;5092957;28;20475;-68
2022/12/12 07:28:43;;;;;;;13.03;4.27;;;;;;;0.22;100.00;100475.78;5093025;28;20421;-68
2022/12/12 07:31:11;;;;;;;10.40;4.00;;;;;;;0.29;100.00;100486.34;5092902;28;20535;-68
2022/12/12 07:33:38;;;;;;;8.90;3.67;;;;;;;0.25;100.00;100493.97;5092850;28;20479;-68
2022/12/12 07:36:06;;;;;;;11.00;4.77;;;;;;;0.02;100.00;100492.16;5095984;28;20523;-67
2022/12/12 07:38:32;;;;;;;13.57;4.30;;;;;;;0.04;100.00;100490.06;5096588;28;20475;-67
2022/12/12 07:41:03;;;;;;;12.70;4.07;;;;;;;0.18;100.00;100485.31;5096659;28;20914;-67
2022/12/12 07:43:31;;;;;;;17.87;5.13;;;;;;;0.11;100.00;100490.75;5096692;28;20427;-67
2022/12/12 07:45:58;;;;;;;13.13;4.23;;;;;;;0.06;100.00;100497.84;5096306;28;20980;-68
2022/12/12 07:48:27;;;;;;;9.00;3.30;;;;;;;0.06;100.00;100500.50;5096627;28;20814;-67
2022/12/12 07:50:53;;;;;;;9.27;4.10;;;;;;;0.08;100.00;100501.88;5096187;28;20475;-68
2022/12/12 07:53:20;;;;;;;10.90;4.20;;;;;;;0.08;100.00;100501.88;5096484;28;20446;-67
2022/12/12 07:55:47;;;;;;;8.47;3.60;;;;;;;0.00;100.00;100512.91;5096365;28;20444;-67
2022/12/12 07:58:13;;;;;;;10.20;4.43;;;;;;;0.10;100.00;100509.66;5096266;28;20443;-69
2022/12/12 08:00:42;;;;;;;9.87;4.30;;;;;;;0.20;100.00;100507.19;5095809;28;20563;-69
2022/12/12 08:03:09;;;;;;;11.60;4.43;;;;;;;0.21;100.00;100504.28;5096288;28;20446;-70
2022/12/12 08:05:38;;;;;;;11.83;5.23;;;;;;;0.25;100.00;100501.97;5096188;28;20524;-68
2022/12/12 08:08:05;;;;;;;10.03;3.70;;;;;;;0.21;100.00;100506.94;5096197;28;20812;-69
2022/12/12 08:10:32;;;;;;;8.40;3.30;;;;;;;0.35;100.00;100509.34;5096043;28;20547;-69
2022/12/12 08:12:58;;;;;;;9.50;3.57;;;;;;;0.37;100.00;100518.75;5096097;28;20615;-69
2022/12/12 08:15:25;;;;;;;10.13;3.57;;;;;;;0.34;100.00;100523.72;5095946;28;20475;-68
2022/12/12 08:17:53;;;;;;;9.83;4.23;;;;;;;0.36;100.00;100519.00;5095997;28;20450;-68
2022/12/12 08:20:20;;;;;;;12.60;5.10;;;;;;;0.32;100.00;100534.63;5095818;28;20490;-68
2022/12/12 08:22:48;;;;;;;8.00;3.20;;;;;;;0.34;100.00;100532.53;5095751;28;20486;-69
2022/12/12 08:25:14;;;;;;;9.43;3.63;;;;;;;-0.02;100.00;100534.41;5095798;28;20436;-69
2022/12/12 08:27:41;;;;;;;7.90;2.70;;;;;;;-0.01;100.00;100540.53;5095928;28;20444;-68
2022/12/12 08:30:09;;;;;;;12.07;4.43;;;;;;;0.08;100.00;100531.16;5095707;28;20467;-70
2022/12/12 08:32:36;;;;;;;14.77;4.50;;;;;;;0.24;100.00;100535.78;5095792;28;20464;-69
2022/12/12 08:35:05;;;;;;;7.47;2.90;;;;;;;0.30;100.00;100535.88;5095755;28;20875;-69
2022/12/12 08:37:31;;;;;;;11.90;4.00;;;;;;;0.18;100.00;100543.91;5095640;28;20524;-70
2022/12/12 08:39:58;;;;;;;11.27;4.20;;;;;;;0.25;100.00;100544.59;5095081;28;20547;-69
2022/12/12 08:42:24;;;;;;;9.90;3.37;;;;;;;0.27;100.00;100536.34;5095121;28;20918;-68
2022/12/12 08:44:51;;;;;;;12.03;4.27;;;;;;;0.38;100.00;100539.00;5095477;28;20532;-68
2022/12/12 08:47:18;;;;;;;10.50;4.30;;;;;;;0.28;100.00;100546.78;5094954;28;20865;-68
2022/12/12 08:49:44;;;;;;;10.67;4.07;;;;;;;0.29;100.00;100545.75;5095066;28;20452;-67
2022/12/12 08:52:12;;;;;;;11.47;3.80;;;;;;;0.40;100.00;100549.41;5095095;28;20528;-67
2022/12/12 08:54:39;;;;;;;10.53;3.97;;;;;;;0.42;100.00;100558.81;5095296;28;20848;-67
2022/12/12 08:57:06;;;;;;;7.50;3.27;;;;;;;0.42;100.00;100566.78;5095240;28;20523;-68
2022/12/12 08:59:32;;;;;;;11.80;4.60;;;;;;;0.41;100.00;100564.38;5118706;22;20884;-69
2022/12/12 09:01:59;;;;;;;8.87;3.80;;;;;;;0.40;100.00;100573.38;5095122;28;20487;-69
2022/12/12 09:04:26;;;;;;;7.90;3.20;;;;;;;0.19;100.00;100572.16;5095156;28;20846;-70
2022/12/12 09:06:53;;;;;;;9.97;3.63;;;;;;;0.32;100.00;100579.09;5095155;28;20539;-70
2022/12/12 09:09:21;;;;;;;10.23;3.00;;;;;;;0.37;100.00;100581.88;5095112;28;20464;-70
2022/12/12 09:11:47;;;;;;;18.53;4.37;;;;;;;0.37;100.00;100584.53;5095170;28;20464;-70
2022/12/12 09:14:14;;;;;;;10.33;4.10;;;;;;;0.26;100.00;100583.47;5094972;28;20446;-70
2022/12/12 09:16:40;;;;;;;10.17;4.90;;;;;;;0.22;100.00;100583.16;5095080;28;20470;-70
2022/12/12 09:19:07;;;;;;;8.90;3.77;;;;;;;0.21;100.00;100584.19;5094585;28;20448;-70
2022/12/12 09:21:34;;;;;;;10.13;3.40;;;;;;;0.32;99.81;100587.09;5094836;28;20480;-70
2022/12/12 09:24:00;;;;;;;10.00;4.00;;;;;;;0.40;99.42;100595.53;5094537;28;20451;-70
2022/12/12 09:26:28;;;;;;;8.73;3.50;;;;;;;0.31;98.51;100598.78;5095285;28;20895;-70
2022/12/12 09:28:55;;;;;;;9.10;3.30;;;;;;;0.36;98.88;100598.91;5094607;28;20527;-70
2022/12/12 09:31:21;;;;;;;8.67;3.47;;;;;;;0.33;98.81;100597.50;5094595;28;20453;-71
2022/12/12 09:33:49;;;;;;;7.97;3.40;;;;;;;0.41;98.19;100596.34;5094684;28;20441;-70
2022/12/12 09:36:16;;;;;;;9.73;3.50;;;;;;;0.29;97.78;100595.53;5090595;28;20924;-71
2022/12/12 09:38:43;;;;;;;12.40;3.80;;;;;;;0.25;97.55;100593.31;5071055;28;20636;-70
2022/12/12 09:41:17;;;;;;;10.03;3.70;;;;;;;0.24;98.58;100589.06;5072890;28;20506;-71
2022/12/12 09:43:51;;;;;;;7.47;2.97;;;;;;;0.42;97.81;100587.31;5074246;28;20442;-70
2022/12/12 09:46:28;;;;;;;8.70;3.23;;;;;;;0.48;96.75;100587.16;5072603;28;20453;-70
2022/12/12 09:49:00;;;;;;;7.10;2.47;;;;;;;0.25;97.57;100588.00;5074148;28;20426;-70
2022/12/12 09:51:27;;;;;;;7.53;3.00;;;;;;;0.27;98.04;100592.28;5073498;28;20540;-70
2022/12/12 09:53:54;;;;;;;8.30;2.90;;;;;;;0.25;97.63;100590.66;5073757;28;20942;-70
2022/12/12 09:56:25;;;;;;;7.73;2.63;;;;;;;0.16;98.09;100596.59;5072469;28;20548;-67
2022/12/12 09:59:03;;;;;;;9.03;3.87;;;;;;;0.16;98.23;100589.41;5072614;28;21014;-71
2022/12/12 10:01:34;;;;;;;12.27;3.87;;;;;;;0.34;97.83;100588.47;5073608;28;20497;-71
2022/12/12 10:04:15;;;;;;;7.73;3.30;;;;;;;0.44;97.32;100591.38;5072313;28;20489;-71
2022/12/12 10:06:46;;;;;;;9.53;3.30;;;;;;;0.46;96.80;100593.78;5072737;28;20453;-71
2022/12/12 10:09:34;;;;;;;8.63;3.80;;;;;;;0.54;97.15;100600.63;5073027;28;20468;-70
2022/12/12 10:12:03;;;;;;;14.73;4.13;;;;;;;0.42;96.58;100593.44;5073269;28;20448;-70
2022/12/12 10:14:36;;;;;;;9.70;3.60;;;;;;;0.14;97.69;100596.03;5073615;28;20437;-70
2022/12/12 10:17:09;;;;;;;7.07;3.17;;;;;;;0.16;98.31;100594.72;5073587;28;20517;-71
2022/12/12 10:19:44;;;;;;;12.97;4.03;;;;;;;0.07;98.28;100596.13;5073548;28;20465;-71
2022/12/12 10:22:19;;;;;;;9.20;3.57;;;;;;;0.18;97.59;100595.31;5073267;28;20559;-71
2022/12/12 10:24:51;;;;;;;10.63;3.60;;;;;;;0.15;97.01;100602.97;5073164;28;20929;-71
2022/12/12 10:27:17;;;;;;;10.10;3.70;;;;;;;0.09;97.26;100599.38;5073570;28;20455;-70
2022/12/12 10:29:47;;;;;;;7.63;3.40;;;;;;;0.02;96.96;100598.66;5073399;28;20493;-71
2022/12/12 10:32:29;;;;;;;10.40;3.43;;;;;;;0.04;96.06;100601.91;5073476;28;20532;-71
2022/12/12 10:35:06;;;;;;;9.33;3.07;;;;;;;0.01;96.16;100599.72;5073627;28;20504;-71
2022/12/12 10:37:42;;;;;;;9.80;4.00;;;;;;;0.04;95.55;100596.56;5072909;28;20521;-71
2022/12/12 10:40:24;;;;;;;13.20;4.67;;;;;;;0.02;94.41;100601.31;5087016;28;20476;-71
2022/12/12 10:42:57;;;;;;;9.63;4.30;;;;;;;0.11;94.14;100602.59;5093199;28;20981;-70
2022/12/12 10:45:44;;;;;;;8.30;3.20;;;;;;;0.17;93.44;100593.69;5093006;28;20512;-70
2022/12/12 10:48:10;;;;;;;7.47;2.97;;;;;;;0.00;93.03;100592.78;5092549;28;20538;-71
2022/12/12 10:50:40;;;;;;;7.83;3.40;;;;;;;-0.10;93.01;100600.50;5093288;28;20463;-70
2022/12/12 10:53:10;;;;;;;10.50;3.80;;;;;;;-0.07;93.19;100589.41;5093318;28;20439;-70
2022/12/12 10:55:43;;;;;;;10.17;3.93;;;;;;;-0.03;93.45;100595.88;5092988;28;20444;-70
2022/12/12 10:58:10;;;;;;;11.10;4.20;;;;;;;-0.06;92.21;100599.81;5093150;28;20456;-71
2022/12/12 11:00:40;;;;;;;9.90;3.70;;;;;;;0.03;91.83;100599.47;5092944;28;20503;-71
2022/12/12 11:03:23;;;;;;;10.50;3.70;;;;;;;-0.21;92.58;100593.31;5093064;28;20559;-70
2022/12/12 11:05:50;;;;;;;10.07;4.10;;;;;;;-0.02;92.51;100593.00;5093019;28;20928;-70
2022/12/12 11:08:25;;;;;;;10.67;3.60;;;;;;;0.04;92.37;100601.91;5093417;28;20524;-70
2022/12/12 11:11:05;;;;;;;8.90;3.90;;;;;;;0.01;91.45;100590.91;5097417;28;20907;-70
2022/12/12 11:13:39;;;;;;;7.40;2.87;;;;;;;-0.18;91.50;100593.66;5097587;28;20440;-70
2022/12/12 11:16:15;;;;;;;9.67;3.87;;;;;;;-0.07;92.89;100592.88;5097366;28;20420;-71
2022/12/12 11:18:56;;;;;;;8.40;3.43;;;;;;;0.12;91.92;100596.22;5097302;28;20508;-71
2022/12/12 11:21:22;;;;;;;7.73;3.20;;;;;;;0.32;91.99;100592.41;5096808;28;20495;-70
2022/12/12 11:23:53;;;;;;;7.20;2.50;;;;;;;0.41;91.83;100593.69;5096803;28;21088;-70
2022/12/12 11:26:21;;;;;;;10.57;4.37;;;;;;;0.48;90.89;100592.50;5074763;28;20544;-65
2022/12/12 11:28:54;;;;;;;12.03;4.00;;;;;;;0.83;90.31;100598.81;5076779;28;20483;-69
2022/12/12 11:31:26;;;;;;;12.83;5.03;;;;;;;0.85;89.69;100604.72;5076119;28;21044;-67
2022/12/12 11:33:55;;;;;;;10.70;5.10;;;;;;;1.00;89.75;100602.34;5076734;28;20513;-69
2022/12/12 11:36:32;;;;;;;11.07;4.30;;;;;;;1.19;88.54;100601.09;5075093;28;20489;-69
2022/12/12 11:39:01;;;;;;;12.73;4.23;;;;;;;1.10;86.91;100599.88;5076588;28;20550;-71
2022/12/12 11:41:28;;;;;;;12.60;5.63;;;;;;;0.87;87.89;100605.28;5075689;28;20463;-70
2022/12/12 11:43:59;;;;;;;10.43;4.43;;;;;;;0.64;88.60;100614.16;5075573;28;20481;-65
2022/12/12 11:46:29;;;;;;;12.03;5.07;;;;;;;0.45;91.20;100608.97;5075419;28;20460;-71